Date,TemperatureHighF,TemperatureAvgF,TemperatureLowF,DewpointHighF,DewpointAvgF,DewpointLowF,HumidityHigh,HumidityAvg,HumidityLow,PressureMaxIn,PressureMinIn,WindSpeedMaxMPH,WindSpeedAvgMPH,GustSpeedMaxMPH,PrecipitationSumIn
2013-1-1,32,21,3,29,18,0,93,87,80,28.92,28.92,9,3,17,0.00
2013-1-2,24,17,11,21,14,6,93,89,81,28.92,28.92,6,2,15,0.00
2013-1-3,27,23,10,25,20,6,93,90,83,28.92,28.92,9,5,14,0.00
2013-1-4,33,30,27,26,24,21,93,80,68,28.92,28.92,10,5,23,0.00
2013-1-5,33,30,22,28,25,17,88,83,73,28.92,28.92,9,3,22,0.01
2013-1-6,36,32,28,32,28,24,94,87,79,28.92,28.92,10,6,17,0.00
2013-1-7,33,26,21,32,24,18,94,91,84,28.92,28.92,8,2,15,0.01
2013-1-8,35,28,24,27,23,20,89,81,70,28.92,28.92,7,1,9,0.00
2013-1-9,46,36,25,38,29,20,86,76,61,28.92,28.92,14,6,23,0.01
2013-1-10,37,34,28,31,29,25,90,83,75,28.92,28.92,7,2,20,0.00
2013-1-11,38,36,31,36,31,27,93,84,72,28.92,28.92,21,13,32,0.19
2013-1-12,48,42,38,46,41,36,95,94,93,28.92,28.92,11,6,18,0.00
2013-1-13,55,49,43,52,47,42,94,93,90,28.92,28.92,19,9,29,0.00
2013-1-14,52,38,28,50,34,24,94,84,72,28.92,28.92,13,5,21,0.02
2013-1-15,32,29,26,25,24,22,88,82,73,28.92,28.92,3,0,6,0.00
2013-1-16,33,29,27,29,27,23,94,91,81,28.92,28.92,11,6,16,0.00
2013-1-17,33,25,18,30,22,15,92,86,78,28.92,28.92,10,3,17,0.00
2013-1-18,28,18,4,17,12,1,93,79,61,28.92,28.92,18,6,26,0.00
2013-1-19,45,38,28,32,24,16,64,58,52,28.92,28.92,18,12,26,0.00
2013-1-20,45,31,19,34,22,12,89,68,51,28.92,28.92,18,8,27,0.01
2013-1-21,22,18,9,18,13,6,92,81,67,28.92,28.92,6,2,12,0.00
2013-1-22,14,9,5,10,1,-1,86,71,57,28.92,28.92,7,4,19,0.00
2013-1-23,9,5,0,6,1,-5,88,82,74,28.92,28.92,5,1,11,0.00
2013-1-24,13,7,-2,8,3,-5,90,84,71,28.92,28.92,7,3,16,0.00
2013-1-25,14,11,2,11,8,0,91,87,78,28.92,28.92,5,1,14,0.00
2013-1-26,19,8,-3,14,5,-6,92,87,76,28.92,28.92,3,0,5,0.03
2013-1-27,24,17,7,20,14,5,93,88,77,28.92,28.92,4,1,8,0.07
2013-1-28,38,30,22,36,26,16,95,88,75,28.92,28.92,17,8,26,0.01
2013-1-29,48,40,34,47,39,33,95,95,94,28.92,28.92,11,4,18,0.33
2013-1-30,58,53,48,55,50,47,94,92,89,28.92,28.92,25,16,38,0.18
2013-1-31,54,32,19,52,28,17,94,83,66,28.92,28.92,17,8,36,0.58